Terminal Aerodrome Forecast
Issued by NWS Detroit/Pontiac, MI

Home | Current Version | Previous Version | Text Only | Print | Product List | Glossary On
Versions: 1 2 3 4 5 6 7 8 9 10 11 12 13 14 15 16 17 18 19 20 21 22 23 24 25 26 27 28 29
000
FTUS43 KDTX 200303 AAA
TAFDTW
TAF AMD
KDTW 200303Z 2003/2106 07005KT 5SM BR OVC006
      TEMPO 2004/2006 4SM BR SCT006 OVC080
     FM201200 04006KT 2SM -RA BR BKN005 OVC012
     FM201500 06006KT 3SM -DZ BR OVC005
     FM201700 12006KT 4SM BR BKN008 OVC015
     FM202100 18006KT 5SM BR BKN015 OVC025=

USA.gov is the U.S. government's official web portal to all federal, state and local government web resources and services.